Aérodrome :







RETROUVEZ-NOUS SUR...

 
LOGIN :

S'inscrire | Disclaimer

   EN    FR    IT 

 









Légende :    VFR   VFR Marginal   IFR   IFR Intensif   IFR Très Intensif
Visi : 
Plafond : 
>= 8 km
>= 3000ft
5 à 8 km
1000 à 3000 ft
1500m à 5 km
500 à 1000 ft
800 à 1500m
200 à 500 ft
< 800m
< 200 ft
Symboles :   Orages  Brouillard  Fortes neiges  Fortes précipitations  Vent > 20 kt







- Altitude de l'aérodrome : 83 ft


KBHB - Hancock County-Bar Harbor

DERNIER METAR :
  • 162356Z AUTO 30003KT 10SM BKN060 14/11 A2998 RMK AO2 SLP153 T01440106 10172 20144 53006

METARs EXPIRÉS :
  • 162256Z AUTO 28003KT 10SM OVC065 15/11 A2997 RMK AO2 SLP150 T01500111
  • 162156Z AUTO 30003KT 10SM OVC055 16/11 A2996 RMK AO2 SLP147 T01610106

TAF KBHB
Valide du 17 à 00h jusqu'au 18 à 00h UTC


162320Z 1700/1724 31005KT P6SM OVC050
FM170900 33005KT P6SM SCT015 OVC050
FM171600 01008KT P6SM BKN030
FM172000 02006KT P6SM BKN050
Pas de NOTAMs connus pour ce terrain.



MET'MAP, la Météo Aéronautique d'un coup d'oeil ! - Copyright ORBIFLY Décembre 2007 - Disclaimer

ORBIFLY MET'MAP TEAM :

Programmation & Développement : Alexandra Zaïnal
Conception & Développement : Baudouin d'Aumeries
Co-Programmation & Développement : Marc-Olivier Méhu
Soutien technique & logistique : Manuel Goepfert

Contact : metmap@orbifly.com




SOURCES & CREDITS :

   NOAA